NORTHEAST SUFFOLK  -  Special Weather Statement Special Weather Statement        NORTHERN NASSAU  -  Special Weather Statement Special Weather Statement        NORTHWEST SUFFOLK  -  Special Weather Statement Special Weather Statement        SOUTHEAST SUFFOLK  -  Special Weather Statement Special Weather Statement        SOUTHERN NASSAU  -  Special Weather Statement Special Weather Statement        SOUTHWEST SUFFOLK  -  Special Weather Statement Special Weather Statement      

Active alerts

Northern Nassau
  Details for Northern Nassau Special Weather Statement
Southern Nassau
  Details for Southern Nassau Special Weather Statement
Northwest Suffolk
  Details for Northwest Suffolk Special Weather Statement
Southwest Suffolk
  Details for Southwest Suffolk Special Weather Statement
Northeast Suffolk
  Details for Northeast Suffolk Special Weather Statement
Southeast Suffolk
  Details for Southeast Suffolk Special Weather Statement


WXM80 ListenWXM80 Stop

You find our weather info also at:

UK Metoffice

WeatherCloud

Weather Underground

Northeastern Weather Network

AWEKAS

Citizen Weather Observer Program (CWOP)

HAMweather, WeatherForYou, PWS Weather


Weather Underground History page Text

Daily Summary for November 17, 2016 Units:  English    Metric   Both
« Previous Day
Next Day »
Daily Weekly Monthly Yearly Custom
  High: Low: Average:
Temperature: 60.7 °F 45.0 °F 51.8 °F
Dew Point: 48.9 °F 40.9 °F 44.4 °F
Humidity: 93 % 60 % 76 %
Wind Speed: 8.3 mph 0.0 mph 2.9 mph
Wind Gust: 13.0 mph - -
Wind:- - SW
Pressure: 30.04 in 29.85 in -
Precipitation: 0.00 in    
Historical Graphs
 
 
Tabular Data for November 17, 2016
Time Temperature Dew Point Pressure Wind Wind Speed Wind Gust Humidity Rainfall Rate (Hourly)
00:01 50.3 °F 42.0 °F 29.85 in West 1.0 mph 2.3 mph 73 % 0.00 in
00:06 50.1 °F 41.8 °F 29.85 in West 0.1 mph 1.2 mph 73 % 0.00 in
00:11 49.9 °F 41.6 °F 29.85 in WNW 1.4 mph 3.5 mph 73 % 0.00 in
00:17 49.6 °F 41.7 °F 29.85 in WNW 0.7 mph 2.0 mph 74 % 0.00 in
00:22 49.2 °F 41.3 °F 29.85 in West 1.6 mph 3.5 mph 74 % 0.00 in
00:27 48.9 °F 41.3 °F 29.85 in SW 0.9 mph 3.5 mph 75 % 0.00 in
00:32 48.5 °F 41.3 °F 29.85 in SW 1.8 mph 3.5 mph 76 % 0.00 in
00:37 48.1 °F 40.9 °F 29.85 in SW 0.6 mph 3.0 mph 76 % 0.00 in
00:42 47.6 °F 41.1 °F 29.85 in SW 1.4 mph 2.3 mph 78 % 0.00 in
00:47 47.2 °F 41.0 °F 29.85 in SW 0.6 mph 2.3 mph 79 % 0.00 in
00:52 46.8 °F 41.3 °F 29.85 in SW 0.6 mph 1.2 mph 81 % 0.00 in
00:57 46.5 °F 41.3 °F 29.85 in SW 2.6 mph 3.5 mph 82 % 0.00 in
01:02 46.2 °F 41.0 °F 29.85 in SW 1.0 mph 2.3 mph 82 % 0.00 in
01:08 46.1 °F 41.2 °F 29.86 in WSW 1.3 mph 3.5 mph 83 % 0.00 in
01:13 45.9 °F 41.0 °F 29.86 in WSW 0.6 mph 2.0 mph 83 % 0.00 in
01:18 45.8 °F 41.2 °F 29.86 in SW 1.8 mph 2.3 mph 84 % 0.00 in
01:23 45.6 °F 41.0 °F 29.86 in WSW 1.4 mph 3.5 mph 84 % 0.00 in
01:28 45.5 °F 40.9 °F 29.87 in WSW 0.9 mph 2.3 mph 84 % 0.00 in
01:33 45.3 °F 41.1 °F 29.87 in SW 2.1 mph 3.5 mph 85 % 0.00 in
01:38 45.2 °F 41.3 °F 29.87 in SW 1.7 mph 3.5 mph 86 % 0.00 in
01:43 45.1 °F 41.2 °F 29.87 in SW 1.7 mph 3.5 mph 86 % 0.00 in
01:48 45.1 °F 41.2 °F 29.87 in SW 2.0 mph 3.5 mph 86 % 0.00 in
01:54 45.0 °F 41.4 °F 29.87 in SW 2.5 mph 4.6 mph 87 % 0.00 in
01:59 45.0 °F 41.4 °F 29.87 in WSW 3.1 mph 4.6 mph 87 % 0.00 in
02:04 45.0 °F 41.4 °F 29.87 in WSW 2.5 mph 4.0 mph 87 % 0.00 in
02:09 45.1 °F 41.5 °F 29.87 in WSW 2.8 mph 3.5 mph 87 % 0.00 in
02:19 45.2 °F 41.6 °F 29.88 in WSW 3.2 mph 3.5 mph 87 % 0.00 in
02:24 45.2 °F 41.6 °F 29.88 in WSW 2.2 mph 6.9 mph 87 % 0.00 in
02:29 45.3 °F 41.7 °F 29.88 in WSW 2.6 mph 3.5 mph 87 % 0.00 in
02:34 45.4 °F 41.8 °F 29.88 in WSW 1.3 mph 3.5 mph 87 % 0.00 in
02:39 45.5 °F 41.6 °F 29.88 in West 0.7 mph 2.3 mph 86 % 0.00 in
02:45 45.6 °F 41.7 °F 29.88 in West 0.6 mph 2.3 mph 86 % 0.00 in
02:50 45.6 °F 41.4 °F 29.89 in WSW 1.0 mph 2.3 mph 85 % 0.00 in
02:55 45.7 °F 41.4 °F 29.88 in WSW 0.7 mph 2.3 mph 85 % 0.00 in
03:00 45.6 °F 41.4 °F 29.89 in Calm   1.2 mph 85 % 0.00 in
03:05 45.6 °F 41.4 °F 29.89 in WSW 1.5 mph 2.3 mph 85 % 0.00 in
03:10 45.6 °F 41.4 °F 29.89 in WSW 0.6 mph 3.5 mph 85 % 0.00 in
03:15 45.6 °F 41.7 °F 29.89 in West 2.6 mph 3.5 mph 86 % 0.00 in
03:20 45.5 °F 41.6 °F 29.89 in West 2.1 mph 3.5 mph 86 % 0.00 in
03:25 45.5 °F 41.6 °F 29.89 in WSW 0.1 mph 3.5 mph 86 % 0.00 in
03:30 45.6 °F 41.7 °F 29.89 in WNW 0.4 mph 2.3 mph 86 % 0.00 in
03:36 45.6 °F 41.7 °F 29.89 in WNW 2.4 mph 3.5 mph 86 % 0.00 in
03:41 45.7 °F 41.8 °F 29.89 in West 3.0 mph 4.6 mph 86 % 0.00 in
03:46 45.8 °F 41.9 °F 29.89 in West 1.6 mph 3.5 mph 86 % 0.00 in
03:51 45.8 °F 41.9 °F 29.89 in West 2.3 mph 3.5 mph 86 % 0.00 in
03:56 46.0 °F 42.0 °F 29.89 in West 1.5 mph 3.5 mph 86 % 0.00 in
04:01 46.0 °F 41.7 °F 29.89 in WNW 0.8 mph 1.2 mph 85 % 0.00 in
04:06 46.1 °F 42.1 °F 29.89 in WSW 0.6 mph 1.2 mph 86 % 0.00 in
04:11 46.2 °F 41.9 °F 29.89 in West 0.3 mph 3.5 mph 85 % 0.00 in
04:17 46.2 °F 41.9 °F 29.89 in WSW 0.8 mph 2.3 mph 85 % 0.00 in
04:22 46.2 °F 41.9 °F 29.89 in West 1.6 mph 3.5 mph 85 % 0.00 in
04:27 46.2 °F 41.9 °F 29.89 in West 0.4 mph 2.3 mph 85 % 0.00 in
04:32 46.2 °F 41.9 °F 29.89 in West 2.3 mph 3.5 mph 85 % 0.00 in
04:37 46.2 °F 41.9 °F 29.89 in West 1.0 mph 2.3 mph 85 % 0.00 in
04:42 46.2 °F 41.9 °F 29.90 in WSW 1.2 mph 3.5 mph 85 % 0.00 in
04:47 46.1 °F 41.8 °F 29.90 in West 1.5 mph 3.5 mph 85 % 0.00 in
04:52 46.1 °F 42.1 °F 29.90 in WSW 2.0 mph 3.5 mph 86 % 0.00 in
04:57 46.1 °F 42.1 °F 29.90 in West 0.6 mph 2.3 mph 86 % 0.00 in
05:02 46.1 °F 42.1 °F 29.90 in West 0.8 mph 2.3 mph 86 % 0.00 in
05:08 46.1 °F 42.1 °F 29.91 in Calm   1.2 mph 86 % 0.00 in
05:13 46.1 °F 42.1 °F 29.90 in NW 1.4 mph 5.8 mph 86 % 0.00 in
05:18 46.1 °F 42.1 °F 29.90 in Calm   1.0 mph 86 % 0.00 in
05:23 46.1 °F 41.8 °F 29.90 in WNW 0.7 mph 1.2 mph 85 % 0.00 in
05:28 46.1 °F 42.1 °F 29.91 in West 1.1 mph 4.0 mph 86 % 0.00 in
05:33 46.0 °F 42.0 °F 29.91 in NNW 0.8 mph 3.5 mph 86 % 0.00 in
05:38 46.0 °F 42.0 °F 29.91 in WNW 0.1 mph 1.2 mph 86 % 0.00 in
05:43 46.0 °F 42.3 °F 29.91 in WNW 2.8 mph 4.6 mph 87 % 0.00 in
05:48 46.1 °F 42.4 °F 29.91 in NW 0.7 mph 3.5 mph 87 % 0.00 in
05:53 46.1 °F 42.4 °F 29.91 in WNW 0.2 mph 1.2 mph 87 % 0.00 in
05:59 46.1 °F 42.4 °F 29.92 in West 1.0 mph 3.5 mph 87 % 0.00 in
06:04 46.1 °F 42.4 °F 29.92 in NW 0.5 mph 3.5 mph 87 % 0.00 in
06:09 46.1 °F 42.4 °F 29.92 in Calm   1.0 mph 87 % 0.00 in
06:14 46.2 °F 42.5 °F 29.92 in NW 0.7 mph 2.0 mph 87 % 0.00 in
06:19 46.2 °F 42.8 °F 29.93 in WNW 1.8 mph 3.5 mph 88 % 0.00 in
06:24 46.2 °F 42.8 °F 29.93 in West 2.3 mph 5.8 mph 88 % 0.00 in
06:29 46.3 °F 42.9 °F 29.93 in West 1.5 mph 3.5 mph 88 % 0.00 in
06:34 46.3 °F 42.9 °F 29.93 in Calm   1.2 mph 88 % 0.00 in
06:39 46.3 °F 42.9 °F 29.93 in NW 0.5 mph 2.3 mph 88 % 0.00 in
06:44 46.3 °F 42.9 °F 29.93 in Calm   1.0 mph 88 % 0.00 in
06:50 46.2 °F 42.5 °F 29.93 in WNW 1.8 mph 3.5 mph 87 % 0.00 in
06:55 46.1 °F 42.4 °F 29.93 in WNW 1.3 mph 3.5 mph 87 % 0.00 in
07:00 46.0 °F 42.3 °F 29.94 in Calm   1.2 mph 87 % 0.00 in
07:05 45.8 °F 42.2 °F 29.95 in Calm   2.0 mph 87 % 0.00 in
07:10 45.6 °F 42.0 °F 29.95 in WNW 2.0 mph 3.0 mph 87 % 0.00 in
07:15 45.5 °F 42.2 °F 29.94 in WNW 0.8 mph 3.5 mph 88 % 0.00 in
07:20 45.5 °F 42.4 °F 29.95 in WSW 1.4 mph 2.3 mph 89 % 0.00 in
07:25 45.5 °F 42.7 °F 29.95 in West 0.5 mph 3.0 mph 90 % 0.00 in
07:31 45.6 °F 42.8 °F 29.95 in West 0.4 mph 1.2 mph 90 % 0.00 in
07:36 45.6 °F 42.8 °F 29.95 in Calm   1.2 mph 90 % 0.00 in
07:41 45.7 °F 43.2 °F 29.95 in West 0.2 mph 1.2 mph 91 % 0.00 in
07:46 45.8 °F 43.3 °F 29.95 in Calm     91 % 0.00 in
07:51 45.8 °F 43.3 °F 29.95 in West 0.3 mph 1.0 mph 91 % 0.00 in
07:56 45.9 °F 43.4 °F 29.95 in Calm   1.0 mph 91 % 0.00 in
08:01 46.1 °F 43.9 °F 29.96 in Calm     92 % 0.00 in
08:11 46.5 °F 44.3 °F 29.96 in West 0.5 mph 2.0 mph 92 % 0.00 in
08:16 46.8 °F 44.6 °F 29.96 in Calm     92 % 0.00 in
08:22 47.1 °F 44.9 °F 29.96 in West 0.8 mph 3.5 mph 92 % 0.00 in
08:27 47.4 °F 45.5 °F 29.97 in West 1.2 mph 3.0 mph 93 % 0.00 in
08:32 47.8 °F 45.6 °F 29.97 in WNW 1.3 mph 3.5 mph 92 % 0.00 in
08:37 48.3 °F 46.1 °F 29.97 in WNW 0.9 mph 2.3 mph 92 % 0.00 in
08:42 48.8 °F 46.6 °F 29.97 in WNW 0.8 mph 3.5 mph 92 % 0.00 in
08:47 49.4 °F 46.9 °F 29.97 in NW 2.5 mph 3.5 mph 91 % 0.00 in
08:52 49.9 °F 46.8 °F 29.97 in WNW 3.4 mph 4.6 mph 89 % 0.00 in
08:57 50.4 °F 47.3 °F 29.97 in WNW 3.4 mph 5.8 mph 89 % 0.00 in
09:02 51.1 °F 47.7 °F 29.98 in NW 2.7 mph 4.6 mph 88 % 0.00 in
09:07 51.8 °F 48.1 °F 29.98 in NW 2.6 mph 4.0 mph 87 % 0.00 in
09:13 52.5 °F 48.4 °F 29.98 in WNW 1.9 mph 3.5 mph 86 % 0.00 in
09:18 53.0 °F 48.3 °F 29.98 in North 2.0 mph 4.0 mph 84 % 0.00 in
09:23 53.5 °F 48.5 °F 29.98 in WNW 2.4 mph 4.6 mph 83 % 0.00 in
09:28 53.8 °F 48.4 °F 29.98 in North 0.8 mph 3.5 mph 82 % 0.00 in
09:33 54.2 °F 48.5 °F 29.98 in WNW 3.5 mph 5.8 mph 81 % 0.00 in
09:38 54.5 °F 48.8 °F 29.98 in NNE 2.5 mph 4.6 mph 81 % 0.00 in
09:43 54.9 °F 48.8 °F 29.98 in NNW 3.5 mph 5.8 mph 80 % 0.00 in
09:48 55.2 °F 48.5 °F 29.98 in NNW 1.0 mph 4.6 mph 78 % 0.00 in
09:53 55.5 °F 48.4 °F 29.98 in NW 0.9 mph 2.3 mph 77 % 0.00 in
09:58 55.8 °F 48.3 °F 29.98 in WNW 5.4 mph 6.9 mph 76 % 0.00 in
10:03 55.9 °F 48.1 °F 29.98 in WNW 3.4 mph 5.8 mph 75 % 0.00 in
10:08 56.1 °F 48.3 °F 29.98 in WNW 2.1 mph 3.5 mph 75 % 0.00 in
10:14 56.1 °F 47.6 °F 29.98 in WNW 1.6 mph 3.5 mph 73 % 0.00 in
10:19 56.1 °F 47.6 °F 29.98 in WNW 3.8 mph 5.0 mph 73 % 0.00 in
10:24 56.1 °F 47.9 °F 29.98 in WNW 1.3 mph 8.1 mph 74 % 0.00 in
10:29 56.1 °F 47.6 °F 29.98 in SW 4.4 mph 6.9 mph 73 % 0.00 in
10:34 56.1 °F 47.2 °F 29.97 in West 4.5 mph 9.2 mph 72 % 0.00 in
10:39 56.2 °F 46.9 °F 29.97 in West 4.6 mph 10.4 mph 71 % 0.00 in
10:44 56.2 °F 46.9 °F 29.97 in WNW 4.2 mph 11.5 mph 71 % 0.00 in
10:49 56.0 °F 46.7 °F 29.97 in WNW 5.9 mph 11.5 mph 71 % 0.00 in
10:54 55.9 °F 46.6 °F 29.97 in West 5.4 mph 8.1 mph 71 % 0.00 in
10:59 55.8 °F 46.5 °F 29.97 in WNW 5.1 mph 9.2 mph 71 % 0.00 in
11:05 55.7 °F 46.8 °F 29.97 in WNW 3.4 mph 6.9 mph 72 % 0.00 in
11:10 55.7 °F 46.8 °F 29.96 in West 4.6 mph 9.2 mph 72 % 0.00 in
11:15 55.7 °F 46.8 °F 29.96 in SW 4.3 mph 6.9 mph 72 % 0.00 in
11:20 55.7 °F 46.8 °F 29.96 in NW 3.3 mph 3.5 mph 72 % 0.00 in
11:25 55.7 °F 47.2 °F 29.96 in WNW 2.0 mph 6.0 mph 73 % 0.00 in
11:30 55.8 °F 47.3 °F 29.96 in WNW 2.0 mph 6.0 mph 73 % 0.00 in
11:35 55.9 °F 47.4 °F 29.96 in WNW 3.0 mph 9.0 mph 73 % 0.00 in
11:40 56.0 °F 47.5 °F 29.95 in NW 3.0 mph 8.0 mph 73 % 0.00 in
11:45 56.1 °F 47.9 °F 29.95 in WNW 2.0 mph 9.0 mph 74 % 0.00 in
11:50 56.2 °F 47.7 °F 29.95 in WNW 5.0 mph 12.0 mph 73 % 0.00 in
11:55 56.4 °F 48.2 °F 29.95 in NW 5.0 mph 9.0 mph 74 % 0.00 in
12:00 56.9 °F 47.2 °F 29.95 in NW 1.7 mph 3.5 mph 70 % 0.00 in
12:05 57.2 °F 47.5 °F 29.94 in NW 5.8 mph 10.4 mph 70 % 0.00 in
12:10 57.4 °F 46.9 °F 29.94 in NNE 3.6 mph 10.4 mph 68 % 0.00 in
12:15 57.7 °F 47.6 °F 29.94 in North 5.3 mph 11.5 mph 69 % 0.00 in
12:20 58.0 °F 47.9 °F 29.94 in North 1.5 mph 3.5 mph 69 % 0.00 in
12:31 58.4 °F 47.1 °F 29.94 in NNE 5.6 mph 10.4 mph 66 % 0.00 in
12:36 58.6 °F 47.7 °F 29.94 in NNE 6.0 mph 11.5 mph 67 % 0.00 in
12:41 58.7 °F 47.4 °F 29.94 in NW 3.7 mph 11.5 mph 66 % 0.00 in
12:46 58.8 °F 47.5 °F 29.93 in NW 7.0 mph 10.0 mph 66 % 0.00 in
12:51 58.9 °F 47.2 °F 29.93 in North 6.6 mph 12.7 mph 65 % 0.00 in
12:56 59.1 °F 47.3 °F 29.93 in North 5.6 mph 8.1 mph 65 % 0.00 in
13:01 59.2 °F 47.8 °F 29.93 in NNW 4.9 mph 8.1 mph 66 % 0.00 in
13:06 59.4 °F 47.6 °F 29.93 in NNW 3.2 mph 4.6 mph 65 % 0.00 in
13:12 59.7 °F 47.9 °F 29.93 in NE 6.0 mph 10.4 mph 65 % 0.00 in
13:17 60.0 °F 48.2 °F 29.93 in WNW 4.1 mph 9.0 mph 65 % 0.00 in
13:22 60.3 °F 48.5 °F 29.93 in NNE 4.5 mph 8.1 mph 65 % 0.00 in
13:27 60.4 °F 48.2 °F 29.93 in North 3.7 mph 7.0 mph 64 % 0.00 in
13:32 60.5 °F 48.3 °F 29.92 in NNW 6.9 mph 9.2 mph 64 % 0.00 in
13:37 60.7 °F 48.4 °F 29.92 in North 3.9 mph 6.0 mph 64 % 0.00 in
13:42 60.7 °F 48.9 °F 29.92 in NNE 4.5 mph 10.4 mph 65 % 0.00 in
13:47 60.7 °F 48.0 °F 29.92 in North 5.6 mph 9.2 mph 63 % 0.00 in
13:52 60.6 °F 47.5 °F 29.93 in North 6.0 mph 10.0 mph 62 % 0.00 in
13:57 60.5 °F 47.8 °F 29.93 in North 5.0 mph 12.0 mph 63 % 0.00 in
14:03 60.3 °F 47.2 °F 29.92 in NW 7.0 mph 11.5 mph 62 % 0.00 in
14:08 60.0 °F 46.5 °F 29.93 in North 4.7 mph 6.9 mph 61 % 0.00 in
14:13 59.8 °F 45.9 °F 29.92 in NNW 8.3 mph 11.5 mph 60 % 0.00 in
14:18 59.7 °F 46.7 °F 29.93 in NNW 6.1 mph 12.0 mph 62 % 0.00 in
14:23 59.5 °F 46.9 °F 29.93 in NW 3.6 mph 3.6 mph 63 % 0.00 in
14:28 59.3 °F 47.1 °F 29.93 in North 4.9 mph 10.4 mph 64 % 0.00 in
14:33 59.0 °F 46.8 °F 29.93 in North 4.5 mph 8.1 mph 64 % 0.00 in
14:38 58.9 °F 46.3 °F 29.93 in NW 3.9 mph 8.1 mph 63 % 0.00 in
14:43 58.8 °F 47.1 °F 29.93 in North 4.5 mph 5.8 mph 65 % 0.00 in
14:48 58.7 °F 47.4 °F 29.93 in NE 2.8 mph 4.6 mph 66 % 0.00 in
14:54 58.6 °F 46.9 °F 29.93 in North 5.2 mph 11.5 mph 65 % 0.00 in
14:59 58.5 °F 46.4 °F 29.93 in North 6.5 mph 11.5 mph 64 % 0.00 in
15:04 58.5 °F 46.4 °F 29.93 in NNE 6.2 mph 12.7 mph 64 % 0.00 in
15:09 58.3 °F 46.2 °F 29.94 in NNE 7.7 mph 12.7 mph 64 % 0.00 in
15:14 58.2 °F 45.7 °F 29.94 in NNW 5.8 mph 10.4 mph 63 % 0.00 in
15:19 58.1 °F 46.0 °F 29.94 in WNW 4.8 mph 11.5 mph 64 % 0.00 in
15:24 58.0 °F 46.3 °F 29.94 in NNW 3.6 mph 9.0 mph 65 % 0.00 in
15:29 57.9 °F 46.6 °F 29.94 in NE 5.3 mph 9.2 mph 66 % 0.00 in
15:34 57.8 °F 46.1 °F 29.94 in WNW 6.0 mph 10.4 mph 65 % 0.00 in
15:39 57.7 °F 44.8 °F 29.95 in NNE 6.2 mph 11.5 mph 62 % 0.00 in
15:45 57.6 °F 45.5 °F 29.95 in North 4.8 mph 10.4 mph 64 % 0.00 in
15:50 57.5 °F 46.2 °F 29.95 in North 5.0 mph 9.2 mph 66 % 0.00 in
15:55 57.5 °F 45.4 °F 29.95 in NNE 4.6 mph 9.2 mph 64 % 0.00 in
16:00 57.4 °F 46.1 °F 29.96 in NNW 5.6 mph 11.5 mph 66 % 0.00 in
16:05 57.3 °F 46.4 °F 29.96 in NNE 3.1 mph 11.5 mph 67 % 0.00 in
16:10 57.2 °F 46.3 °F 29.96 in NNW 3.0 mph 9.0 mph 67 % 0.00 in
16:15 57.0 °F 46.6 °F 29.97 in North 3.0 mph 10.0 mph 68 % 0.00 in
16:20 56.9 °F 46.8 °F 29.97 in North 2.0 mph 5.0 mph 69 % 0.00 in
16:25 56.7 °F 46.2 °F 29.97 in North 2.0 mph 7.0 mph 68 % 0.00 in
16:30 56.5 °F 46.4 °F 29.97 in NW 3.0 mph 5.0 mph 69 % 0.00 in
16:35 56.4 °F 46.4 °F 29.97 in North 5.0 mph 10.0 mph 69 % 0.00 in
16:40 56.2 °F 45.8 °F 29.98 in North 5.0 mph 12.0 mph 68 % 0.00 in
16:45 56.1 °F 45.7 °F 29.97 in North 6.0 mph 10.0 mph 68 % 0.00 in
16:50 56.0 °F 45.6 °F 29.98 in North 5.0 mph 8.0 mph 68 % 0.00 in
16:55 56.0 °F 45.6 °F 29.98 in North 5.0 mph 13.0 mph 68 % 0.00 in
17:00 55.9 °F 45.9 °F 29.98 in NNE 4.8 mph 8.1 mph 69 % 0.00 in
17:05 55.8 °F 45.8 °F 29.98 in North 5.0 mph 12.0 mph 69 % 0.00 in
17:10 55.7 °F 45.7 °F 29.98 in North 7.0 mph 10.0 mph 69 % 0.00 in
17:15 55.7 °F 45.7 °F 29.98 in North 6.2 mph 9.2 mph 69 % 0.00 in
17:20 55.6 °F 45.6 °F 29.98 in NNE 5.0 mph 9.0 mph 69 % 0.00 in
17:25 55.5 °F 45.5 °F 29.99 in NNE 6.0 mph 9.0 mph 69 % 0.00 in
17:30 55.4 °F 45.4 °F 29.99 in North 5.0 mph 9.0 mph 69 % 0.00 in
17:35 55.4 °F 46.1 °F 29.99 in North 3.0 mph 9.0 mph 71 % 0.00 in
17:40 55.3 °F 46.1 °F 29.99 in North 3.0 mph 7.0 mph 71 % 0.00 in
17:45 55.1 °F 45.5 °F 29.99 in NNE 2.0 mph 9.0 mph 70 % 0.00 in
17:50 55.0 °F 45.4 °F 29.99 in North 2.0 mph 6.0 mph 70 % 0.00 in
17:55 54.8 °F 45.2 °F 30.00 in NNE 3.0 mph 7.0 mph 70 % 0.00 in
18:00 54.6 °F 45.0 °F 30.00 in NNE 4.3 mph 6.0 mph 70 % 0.00 in
18:05 54.6 °F 44.6 °F 30.00 in NNE 5.0 mph 12.0 mph 69 % 0.00 in
18:10 54.6 °F 45.0 °F 30.00 in North 5.0 mph 9.0 mph 70 % 0.00 in
18:15 54.5 °F 44.9 °F 30.00 in NNE 5.0 mph 12.0 mph 70 % 0.00 in
18:20 54.5 °F 45.3 °F 30.00 in NNE 5.0 mph 8.0 mph 71 % 0.00 in
18:25 54.4 °F 45.2 °F 30.00 in North 5.0 mph 7.0 mph 71 % 0.00 in
18:30 54.4 °F 45.2 °F 30.00 in North 5.0 mph 9.0 mph 71 % 0.00 in
18:35 54.4 °F 44.8 °F 30.00 in NNW 5.7 mph 8.1 mph 70 % 0.00 in
18:40 54.3 °F 45.1 °F 29.99 in North 6.0 mph 9.0 mph 71 % 0.00 in
18:45 54.2 °F 44.6 °F 30.00 in North 5.0 mph 8.0 mph 70 % 0.00 in
18:55 54.1 °F 44.5 °F 30.00 in North 5.0 mph 9.0 mph 70 % 0.00 in
19:00 54.0 °F 44.8 °F 30.00 in NNW 1.1 mph 4.6 mph 71 % 0.00 in
19:05 53.9 °F 44.7 °F 30.00 in NNW 3.0 mph 12.0 mph 71 % 0.00 in
19:10 53.9 °F 44.7 °F 30.00 in NNW 3.0 mph 12.0 mph 71 % 0.00 in
19:15 53.8 °F 44.6 °F 30.00 in NW 3.0 mph 10.0 mph 71 % 0.00 in
19:20 53.7 °F 44.5 °F 30.00 in NW 1.7 mph 6.9 mph 71 % 0.00 in
19:25 53.6 °F 44.4 °F 30.00 in NNW 1.0 mph 7.0 mph 71 % 0.00 in
19:30 53.6 °F 44.4 °F 30.00 in NW 1.0 mph 5.0 mph 71 % 0.00 in
19:35 53.4 °F 44.2 °F 30.00 in NW 2.0 mph 4.0 mph 71 % 0.00 in
19:40 53.3 °F 44.1 °F 30.00 in NW 2.0 mph 5.0 mph 71 % 0.00 in
19:45 53.1 °F 44.3 °F 30.00 in NNW 1.0 mph 7.0 mph 72 % 0.00 in
19:50 53.0 °F 44.2 °F 30.00 in NW 0.7 mph 3.5 mph 72 % 0.00 in
19:55 52.9 °F 44.1 °F 30.01 in Calm   5.0 mph 72 % 0.00 in
20:00 52.8 °F 44.0 °F 30.01 in Calm   1.2 mph 72 % 0.00 in
20:05 52.6 °F 44.2 °F 30.01 in North 2.0 mph 5.0 mph 73 % 0.00 in
20:10 52.4 °F 44.0 °F 30.01 in NNW 2.0 mph 8.0 mph 73 % 0.00 in
20:15 52.3 °F 43.9 °F 30.01 in NNW 2.0 mph 6.0 mph 73 % 0.00 in
20:20 52.1 °F 43.7 °F 30.01 in NE 0.3 mph 4.6 mph 73 % 0.00 in
20:25 52.0 °F 43.6 °F 30.01 in North 2.0 mph 8.0 mph 73 % 0.00 in
20:35 51.9 °F 43.9 °F 30.02 in NNW 4.4 mph 6.9 mph 74 % 0.00 in
20:40 51.9 °F 43.5 °F 30.02 in NNW 3.0 mph 9.0 mph 73 % 0.00 in
20:45 52.0 °F 43.6 °F 30.02 in North 5.0 mph 10.0 mph 73 % 0.00 in
20:50 51.9 °F 43.2 °F 30.02 in NNW 2.8 mph 9.0 mph 72 % 0.00 in
20:55 51.9 °F 43.5 °F 30.02 in NNW 3.0 mph 7.0 mph 73 % 0.00 in
21:00 51.9 °F 43.5 °F 30.02 in NNW 4.3 mph 11.5 mph 73 % 0.00 in
21:05 51.8 °F 43.8 °F 30.02 in NNE 4.8 mph 11.5 mph 74 % 0.00 in
21:10 51.7 °F 43.7 °F 30.02 in North 4.1 mph 9.2 mph 74 % 0.00 in
21:15 51.7 °F 43.7 °F 30.03 in NNE 5.8 mph 10.4 mph 74 % 0.00 in
21:20 51.7 °F 43.7 °F 30.03 in NNE 7.0 mph 12.7 mph 74 % 0.00 in
21:26 51.6 °F 43.2 °F 30.03 in NNE 4.5 mph 6.9 mph 73 % 0.00 in
21:31 51.5 °F 43.5 °F 30.03 in NE 4.5 mph 9.2 mph 74 % 0.00 in
21:36 51.5 °F 43.1 °F 30.04 in North 4.2 mph 9.2 mph 73 % 0.00 in
21:41 51.5 °F 43.1 °F 30.03 in NNW 4.2 mph 6.0 mph 73 % 0.00 in
21:46 51.4 °F 43.0 °F 30.03 in NNE 5.7 mph 11.5 mph 73 % 0.00 in
21:51 51.2 °F 42.8 °F 30.03 in North 4.4 mph 6.9 mph 73 % 0.00 in
21:56 51.2 °F 43.2 °F 30.03 in West 4.9 mph 12.7 mph 74 % 0.00 in
22:01 51.1 °F 43.1 °F 30.03 in North 2.9 mph 8.1 mph 74 % 0.00 in
22:06 51.0 °F 43.0 °F 30.03 in North 4.5 mph 9.2 mph 74 % 0.00 in
22:11 50.9 °F 42.9 °F 30.03 in NW 2.8 mph 5.8 mph 74 % 0.00 in
22:17 50.9 °F 42.9 °F 30.03 in North 3.8 mph 6.9 mph 74 % 0.00 in
22:22 50.8 °F 42.5 °F 30.03 in NNE 3.4 mph 8.1 mph 73 % 0.00 in
22:27 50.7 °F 42.7 °F 30.03 in North 3.2 mph 5.8 mph 74 % 0.00 in
22:32 50.6 °F 42.6 °F 30.03 in NNW 4.9 mph 9.2 mph 74 % 0.00 in
22:37 50.6 °F 43.0 °F 30.03 in NNE 3.1 mph 6.9 mph 75 % 0.00 in
22:42 50.5 °F 42.5 °F 30.03 in NNE 2.8 mph 6.9 mph 74 % 0.00 in
22:47 50.5 °F 42.5 °F 30.03 in North 4.4 mph 6.9 mph 74 % 0.00 in
22:52 50.4 °F 43.1 °F 30.03 in North 1.8 mph 3.5 mph 76 % 0.00 in
22:57 50.3 °F 43.0 °F 30.03 in NW 3.3 mph 5.8 mph 76 % 0.00 in
23:02 50.2 °F 42.6 °F 30.03 in NNE 4.3 mph 6.9 mph 75 % 0.00 in
23:08 50.1 °F 42.8 °F 30.03 in NNE 3.6 mph 5.8 mph 76 % 0.00 in
23:18 49.9 °F 42.6 °F 30.04 in NNE 2.7 mph 4.6 mph 76 % 0.00 in
23:23 49.9 °F 42.6 °F 30.04 in North 3.3 mph 3.5 mph 76 % 0.00 in
23:28 49.9 °F 42.6 °F 30.04 in NNE 3.6 mph 9.0 mph 76 % 0.00 in
23:33 49.7 °F 42.4 °F 30.04 in North 5.9 mph 9.2 mph 76 % 0.00 in
23:38 49.7 °F 42.4 °F 30.04 in NNE 4.6 mph 11.5 mph 76 % 0.00 in
23:43 49.7 °F 42.4 °F 30.04 in North 5.2 mph 8.1 mph 76 % 0.00 in
23:48 49.6 °F 42.3 °F 30.04 in North 5.1 mph 8.1 mph 76 % 0.00 in
23:53 49.6 °F 42.3 °F 30.04 in North 5.1 mph 8.1 mph 76 % 0.00 in
23:59 49.5 °F 42.2 °F 30.04 in North 3.4 mph 6.9 mph 76 % 0.00 in
Crab Meadow Weather
Compliments of Weather Underground - 3 mb

Script developed by  Jim McMurry - jmcmurry@mwt.net Adapted for the template by  Wim van der Kuil - Leuven-Template.eu

Weather Terms: Lake Effect Snow Warning - Lake effect snowfall of 6 inches or more in 12 hours or less, or 8 inches or more in 24 hours or less.